Terminal Aerodrome Forecast
Issued by NWS

Home | Current Version | Previous Version | Text Only | Print | Product List | Glossary On
Versions: 1 2 3 4 5 6 7 8 9 10 11 12 13 14 15 16 17
000
FTUS42 KTAE 021100
TAFVLD
TAF
KVLD 021136Z 0212/0312 04004KT 6SM BR BKN015
      TEMPO 0212/0215 1/4SM FG VV002
     FM021600 VRB03KT 5SM BR OVC007
     FM021800 VRB04KT P6SM OVC025
     FM022100 VRB04KT P6SM OVC050
     FM030900 00000KT 1/2SM FG OVC015=

USA.gov is the U.S. government's official web portal to all federal, state and local government web resources and services.